sensor_id;sensor_type;location;lat;lon;timestamp;P1;durP1;ratioP1;P2;durP2;ratioP2
15340;SDS011;7770;52.158;5.372;2022-10-24T00:00:50;10.10;;;4.27;;
15340;SDS011;7770;52.158;5.372;2022-10-24T00:03:36;6.60;;;4.07;;
15340;SDS011;7770;52.158;5.372;2022-10-24T00:06:23;9.10;;;4.77;;
15340;SDS011;7770;52.158;5.372;2022-10-24T00:09:09;10.37;;;5.13;;
15340;SDS011;7770;52.158;5.372;2022-10-24T00:11:55;10.60;;;4.70;;
15340;SDS011;7770;52.158;5.372;2022-10-24T00:14:41;10.80;;;4.47;;
15340;SDS011;7770;52.158;5.372;2022-10-24T00:17:27;12.40;;;5.00;;
15340;SDS011;7770;52.158;5.372;2022-10-24T00:20:13;11.07;;;4.40;;
15340;SDS011;7770;52.158;5.372;2022-10-24T00:22:59;9.87;;;4.70;;
15340;SDS011;7770;52.158;5.372;2022-10-24T00:25:46;13.63;;;4.97;;
15340;SDS011;7770;52.158;5.372;2022-10-24T00:28:33;12.27;;;5.07;;
15340;SDS011;7770;52.158;5.372;2022-10-24T00:31:20;12.20;;;5.37;;
15340;SDS011;7770;52.158;5.372;2022-10-24T00:34:06;13.23;;;5.07;;
15340;SDS011;7770;52.158;5.372;2022-10-24T00:36:52;9.90;;;4.97;;
15340;SDS011;7770;52.158;5.372;2022-10-24T00:39:38;11.40;;;5.40;;
15340;SDS011;7770;52.158;5.372;2022-10-24T00:42:24;9.67;;;4.73;;
15340;SDS011;7770;52.158;5.372;2022-10-24T00:51:22;9.67;;;4.60;;
15340;SDS011;7770;52.158;5.372;2022-10-24T00:54:13;17.50;;;5.50;;
15340;SDS011;7770;52.158;5.372;2022-10-24T00:57:05;10.30;;;4.70;;
15340;SDS011;7770;52.158;5.372;2022-10-24T01:00:10;12.70;;;4.63;;
15340;SDS011;7770;52.158;5.372;2022-10-24T01:03:03;9.80;;;4.30;;
15340;SDS011;7770;52.158;5.372;2022-10-24T01:12:18;13.17;;;4.27;;
15340;SDS011;7770;52.158;5.372;2022-10-24T01:15:21;11.90;;;4.30;;
15340;SDS011;7770;52.158;5.372;2022-10-24T01:18:22;15.73;;;4.57;;
15340;SDS011;7770;52.158;5.372;2022-10-24T01:21:23;8.13;;;4.03;;
15340;SDS011;7770;52.158;5.372;2022-10-24T01:24:22;8.07;;;3.87;;
15340;SDS011;7770;52.158;5.372;2022-10-24T01:27:47;9.20;;;4.00;;
15340;SDS011;7770;52.158;5.372;2022-10-24T01:34:16;11.13;;;3.97;;
15340;SDS011;7770;52.158;5.372;2022-10-24T01:40:10;8.77;;;3.60;;
15340;SDS011;7770;52.158;5.372;2022-10-24T01:43:08;9.93;;;3.60;;
15340;SDS011;7770;52.158;5.372;2022-10-24T01:46:03;10.27;;;3.63;;
15340;SDS011;7770;52.158;5.372;2022-10-24T01:49:02;9.23;;;3.80;;
15340;SDS011;7770;52.158;5.372;2022-10-24T01:51:54;5.90;;;3.53;;
15340;SDS011;7770;52.158;5.372;2022-10-24T01:54:45;7.00;;;3.77;;
15340;SDS011;7770;52.158;5.372;2022-10-24T01:57:33;8.23;;;3.53;;
15340;SDS011;7770;52.158;5.372;2022-10-24T02:00:21;8.07;;;4.13;;
15340;SDS011;7770;52.158;5.372;2022-10-24T02:03:17;7.40;;;3.60;;
15340;SDS011;7770;52.158;5.372;2022-10-24T02:09:00;7.90;;;3.67;;
15340;SDS011;7770;52.158;5.372;2022-10-24T02:11:53;6.33;;;3.60;;
15340;SDS011;7770;52.158;5.372;2022-10-24T02:14:47;8.87;;;3.80;;
15340;SDS011;7770;52.158;5.372;2022-10-24T02:17:38;9.63;;;4.00;;
15340;SDS011;7770;52.158;5.372;2022-10-24T02:20:27;9.63;;;3.53;;
15340;SDS011;7770;52.158;5.372;2022-10-24T02:23:26;10.53;;;3.60;;
15340;SDS011;7770;52.158;5.372;2022-10-24T02:26:34;11.60;;;3.83;;
15340;SDS011;7770;52.158;5.372;2022-10-24T02:30:08;9.73;;;4.10;;
15340;SDS011;7770;52.158;5.372;2022-10-24T02:32:58;7.17;;;3.70;;
15340;SDS011;7770;52.158;5.372;2022-10-24T02:35:46;9.17;;;3.80;;
15340;SDS011;7770;52.158;5.372;2022-10-24T02:38:35;8.53;;;3.70;;
15340;SDS011;7770;52.158;5.372;2022-10-24T02:41:25;8.90;;;3.43;;
15340;SDS011;7770;52.158;5.372;2022-10-24T02:44:16;7.77;;;3.53;;
15340;SDS011;7770;52.158;5.372;2022-10-24T02:47:03;9.50;;;3.83;;
15340;SDS011;7770;52.158;5.372;2022-10-24T02:49:51;6.23;;;3.37;;
15340;SDS011;7770;52.158;5.372;2022-10-24T02:52:38;7.20;;;3.70;;
15340;SDS011;7770;52.158;5.372;2022-10-24T02:55:26;8.07;;;3.63;;
15340;SDS011;7770;52.158;5.372;2022-10-24T02:58:12;11.10;;;3.63;;
15340;SDS011;7770;52.158;5.372;2022-10-24T03:00:58;9.23;;;3.47;;
15340;SDS011;7770;52.158;5.372;2022-10-24T03:03:44;5.50;;;3.27;;
15340;SDS011;7770;52.158;5.372;2022-10-24T03:06:31;5.50;;;3.37;;
15340;SDS011;7770;52.158;5.372;2022-10-24T03:09:17;8.47;;;3.43;;
15340;SDS011;7770;52.158;5.372;2022-10-24T03:12:03;10.57;;;3.67;;
15340;SDS011;7770;52.158;5.372;2022-10-24T03:14:49;7.10;;;3.40;;
15340;SDS011;7770;52.158;5.372;2022-10-24T03:17:35;6.80;;;3.03;;
15340;SDS011;7770;52.158;5.372;2022-10-24T03:20:21;7.60;;;3.30;;
15340;SDS011;7770;52.158;5.372;2022-10-24T03:23:08;6.30;;;3.50;;
15340;SDS011;7770;52.158;5.372;2022-10-24T03:25:55;6.57;;;3.47;;
15340;SDS011;7770;52.158;5.372;2022-10-24T03:28:42;7.17;;;3.23;;
15340;SDS011;7770;52.158;5.372;2022-10-24T03:31:28;6.70;;;3.20;;
15340;SDS011;7770;52.158;5.372;2022-10-24T03:34:15;7.77;;;3.13;;
15340;SDS011;7770;52.158;5.372;2022-10-24T03:37:01;10.17;;;3.63;;
15340;SDS011;7770;52.158;5.372;2022-10-24T03:39:48;11.67;;;3.30;;
15340;SDS011;7770;52.158;5.372;2022-10-24T03:42:34;7.90;;;3.07;;
15340;SDS011;7770;52.158;5.372;2022-10-24T03:45:20;9.87;;;3.40;;
15340;SDS011;7770;52.158;5.372;2022-10-24T03:48:06;4.37;;;2.70;;
15340;SDS011;7770;52.158;5.372;2022-10-24T03:50:52;10.10;;;3.20;;
15340;SDS011;7770;52.158;5.372;2022-10-24T03:53:38;6.60;;;3.00;;
15340;SDS011;7770;52.158;5.372;2022-10-24T03:56:24;8.90;;;2.90;;
15340;SDS011;7770;52.158;5.372;2022-10-24T03:59:10;4.43;;;2.70;;
15340;SDS011;7770;52.158;5.372;2022-10-24T04:01:56;6.43;;;2.57;;
15340;SDS011;7770;52.158;5.372;2022-10-24T04:04:44;6.63;;;2.80;;
15340;SDS011;7770;52.158;5.372;2022-10-24T04:07:30;10.47;;;3.27;;
15340;SDS011;7770;52.158;5.372;2022-10-24T04:10:16;8.63;;;2.73;;
15340;SDS011;7770;52.158;5.372;2022-10-24T04:13:02;9.50;;;2.60;;
15340;SDS011;7770;52.158;5.372;2022-10-24T04:15:48;8.90;;;2.70;;
15340;SDS011;7770;52.158;5.372;2022-10-24T04:18:34;5.23;;;2.40;;
15340;SDS011;7770;52.158;5.372;2022-10-24T04:21:20;8.10;;;3.00;;
15340;SDS011;7770;52.158;5.372;2022-10-24T04:24:06;9.47;;;2.90;;
15340;SDS011;7770;52.158;5.372;2022-10-24T04:26:52;6.70;;;2.63;;
15340;SDS011;7770;52.158;5.372;2022-10-24T04:29:38;6.90;;;2.40;;
15340;SDS011;7770;52.158;5.372;2022-10-24T04:32:24;6.03;;;2.70;;
15340;SDS011;7770;52.158;5.372;2022-10-24T04:35:11;8.40;;;2.67;;
15340;SDS011;7770;52.158;5.372;2022-10-24T04:37:58;7.73;;;2.73;;
15340;SDS011;7770;52.158;5.372;2022-10-24T04:40:45;7.77;;;2.90;;
15340;SDS011;7770;52.158;5.372;2022-10-24T04:43:33;9.60;;;2.47;;
15340;SDS011;7770;52.158;5.372;2022-10-24T04:46:19;6.57;;;2.50;;
15340;SDS011;7770;52.158;5.372;2022-10-24T04:49:05;7.23;;;2.50;;
15340;SDS011;7770;52.158;5.372;2022-10-24T04:51:52;7.80;;;2.40;;
15340;SDS011;7770;52.158;5.372;2022-10-24T04:54:38;8.73;;;2.57;;
15340;SDS011;7770;52.158;5.372;2022-10-24T04:57:24;6.10;;;2.70;;
15340;SDS011;7770;52.158;5.372;2022-10-24T05:00:10;4.47;;;2.30;;
15340;SDS011;7770;52.158;5.372;2022-10-24T05:02:57;9.13;;;2.60;;
15340;SDS011;7770;52.158;5.372;2022-10-24T05:05:43;9.13;;;2.70;;
15340;SDS011;7770;52.158;5.372;2022-10-24T05:08:29;6.20;;;2.57;;
15340;SDS011;7770;52.158;5.372;2022-10-24T05:11:15;6.23;;;2.80;;
15340;SDS011;7770;52.158;5.372;2022-10-24T05:14:01;5.13;;;2.40;;
15340;SDS011;7770;52.158;5.372;2022-10-24T05:16:47;7.27;;;2.40;;
15340;SDS011;7770;52.158;5.372;2022-10-24T05:19:33;7.43;;;2.47;;
15340;SDS011;7770;52.158;5.372;2022-10-24T05:22:20;9.47;;;2.83;;
15340;SDS011;7770;52.158;5.372;2022-10-24T05:25:06;6.53;;;2.33;;
15340;SDS011;7770;52.158;5.372;2022-10-24T05:27:53;7.67;;;2.73;;
15340;SDS011;7770;52.158;5.372;2022-10-24T05:30:39;7.70;;;2.57;;
15340;SDS011;7770;52.158;5.372;2022-10-24T05:33:28;7.07;;;2.50;;
15340;SDS011;7770;52.158;5.372;2022-10-24T05:36:14;7.50;;;2.77;;
15340;SDS011;7770;52.158;5.372;2022-10-24T05:39:00;6.20;;;2.50;;
15340;SDS011;7770;52.158;5.372;2022-10-24T05:41:46;9.60;;;2.83;;
15340;SDS011;7770;52.158;5.372;2022-10-24T05:44:32;6.80;;;2.40;;
15340;SDS011;7770;52.158;5.372;2022-10-24T05:47:18;7.87;;;2.53;;
15340;SDS011;7770;52.158;5.372;2022-10-24T05:50:04;7.53;;;2.97;;
15340;SDS011;7770;52.158;5.372;2022-10-24T05:52:51;5.80;;;2.83;;
15340;SDS011;7770;52.158;5.372;2022-10-24T05:55:38;9.07;;;2.60;;
15340;SDS011;7770;52.158;5.372;2022-10-24T05:58:24;6.50;;;2.63;;
15340;SDS011;7770;52.158;5.372;2022-10-24T06:01:11;8.23;;;2.60;;
15340;SDS011;7770;52.158;5.372;2022-10-24T06:03:57;7.73;;;2.90;;
15340;SDS011;7770;52.158;5.372;2022-10-24T06:06:44;6.87;;;2.57;;
15340;SDS011;7770;52.158;5.372;2022-10-24T06:09:30;7.60;;;2.67;;
15340;SDS011;7770;52.158;5.372;2022-10-24T06:12:16;7.70;;;2.30;;
15340;SDS011;7770;52.158;5.372;2022-10-24T06:15:03;4.17;;;2.10;;
15340;SDS011;7770;52.158;5.372;2022-10-24T06:17:52;6.93;;;2.90;;
15340;SDS011;7770;52.158;5.372;2022-10-24T06:20:38;8.87;;;2.50;;
15340;SDS011;7770;52.158;5.372;2022-10-24T06:23:24;6.70;;;2.30;;
15340;SDS011;7770;52.158;5.372;2022-10-24T06:26:10;6.23;;;2.50;;
15340;SDS011;7770;52.158;5.372;2022-10-24T06:28:58;7.43;;;2.40;;
15340;SDS011;7770;52.158;5.372;2022-10-24T06:31:44;8.73;;;2.67;;
15340;SDS011;7770;52.158;5.372;2022-10-24T06:34:30;9.67;;;2.97;;
15340;SDS011;7770;52.158;5.372;2022-10-24T06:37:16;7.07;;;2.63;;
15340;SDS011;7770;52.158;5.372;2022-10-24T06:40:02;6.97;;;2.30;;
15340;SDS011;7770;52.158;5.372;2022-10-24T06:42:49;6.67;;;2.77;;
15340;SDS011;7770;52.158;5.372;2022-10-24T06:45:36;7.77;;;2.60;;
15340;SDS011;7770;52.158;5.372;2022-10-24T06:48:23;8.03;;;2.80;;
15340;SDS011;7770;52.158;5.372;2022-10-24T06:51:10;7.37;;;2.30;;
15340;SDS011;7770;52.158;5.372;2022-10-24T06:54:00;8.47;;;2.80;;
15340;SDS011;7770;52.158;5.372;2022-10-24T06:56:46;8.40;;;2.87;;
15340;SDS011;7770;52.158;5.372;2022-10-24T06:59:32;8.83;;;2.70;;
15340;SDS011;7770;52.158;5.372;2022-10-24T07:02:18;5.73;;;2.50;;
15340;SDS011;7770;52.158;5.372;2022-10-24T07:05:05;12.73;;;3.10;;
15340;SDS011;7770;52.158;5.372;2022-10-24T07:07:55;6.93;;;2.90;;
15340;SDS011;7770;52.158;5.372;2022-10-24T07:10:41;9.03;;;2.80;;
15340;SDS011;7770;52.158;5.372;2022-10-24T07:13:27;9.03;;;3.07;;
15340;SDS011;7770;52.158;5.372;2022-10-24T07:16:14;8.17;;;3.10;;
15340;SDS011;7770;52.158;5.372;2022-10-24T07:19:02;8.00;;;2.93;;
15340;SDS011;7770;52.158;5.372;2022-10-24T07:21:49;8.60;;;3.00;;
15340;SDS011;7770;52.158;5.372;2022-10-24T07:24:35;8.87;;;2.90;;
15340;SDS011;7770;52.158;5.372;2022-10-24T07:27:21;8.87;;;2.57;;
15340;SDS011;7770;52.158;5.372;2022-10-24T07:30:08;9.20;;;2.53;;
15340;SDS011;7770;52.158;5.372;2022-10-24T07:33:00;8.57;;;2.67;;
15340;SDS011;7770;52.158;5.372;2022-10-24T07:35:46;10.70;;;3.20;;
15340;SDS011;7770;52.158;5.372;2022-10-24T07:38:32;7.27;;;2.80;;
15340;SDS011;7770;52.158;5.372;2022-10-24T07:41:18;8.60;;;2.97;;
15340;SDS011;7770;52.158;5.372;2022-10-24T07:44:04;12.33;;;3.00;;
15340;SDS011;7770;52.158;5.372;2022-10-24T07:46:51;7.73;;;2.40;;
15340;SDS011;7770;52.158;5.372;2022-10-24T07:49:37;8.53;;;2.90;;
15340;SDS011;7770;52.158;5.372;2022-10-24T07:52:23;6.20;;;2.97;;
15340;SDS011;7770;52.158;5.372;2022-10-24T07:55:09;9.60;;;2.90;;
15340;SDS011;7770;52.158;5.372;2022-10-24T07:57:55;7.70;;;3.00;;
15340;SDS011;7770;52.158;5.372;2022-10-24T08:00:41;6.73;;;3.20;;
15340;SDS011;7770;52.158;5.372;2022-10-24T08:03:27;9.00;;;2.93;;
15340;SDS011;7770;52.158;5.372;2022-10-24T08:06:15;9.10;;;2.73;;
15340;SDS011;7770;52.158;5.372;2022-10-24T08:09:04;9.43;;;2.87;;
15340;SDS011;7770;52.158;5.372;2022-10-24T08:11:50;6.20;;;2.70;;
15340;SDS011;7770;52.158;5.372;2022-10-24T08:14:37;7.93;;;2.70;;
15340;SDS011;7770;52.158;5.372;2022-10-24T08:17:24;6.50;;;2.53;;
15340;SDS011;7770;52.158;5.372;2022-10-24T08:20:10;8.97;;;2.67;;
15340;SDS011;7770;52.158;5.372;2022-10-24T08:22:57;10.30;;;2.70;;
15340;SDS011;7770;52.158;5.372;2022-10-24T08:25:43;7.70;;;2.60;;
15340;SDS011;7770;52.158;5.372;2022-10-24T08:28:29;7.97;;;2.80;;
15340;SDS011;7770;52.158;5.372;2022-10-24T08:31:16;8.00;;;2.33;;
15340;SDS011;7770;52.158;5.372;2022-10-24T08:34:04;8.73;;;2.50;;
15340;SDS011;7770;52.158;5.372;2022-10-24T08:36:51;5.70;;;2.33;;
15340;SDS011;7770;52.158;5.372;2022-10-24T08:39:37;6.10;;;2.40;;
15340;SDS011;7770;52.158;5.372;2022-10-24T08:42:24;8.93;;;3.10;;
15340;SDS011;7770;52.158;5.372;2022-10-24T08:45:34;7.20;;;2.70;;
15340;SDS011;7770;52.158;5.372;2022-10-24T08:48:27;8.60;;;2.67;;
15340;SDS011;7770;52.158;5.372;2022-10-24T08:51:28;7.70;;;2.93;;
15340;SDS011;7770;52.158;5.372;2022-10-24T08:54:36;6.20;;;2.60;;
15340;SDS011;7770;52.158;5.372;2022-10-24T08:57:26;10.20;;;2.73;;
15340;SDS011;7770;52.158;5.372;2022-10-24T09:00:18;6.73;;;2.50;;
15340;SDS011;7770;52.158;5.372;2022-10-24T09:03:17;9.93;;;2.93;;
15340;SDS011;7770;52.158;5.372;2022-10-24T09:06:18;7.90;;;2.63;;
15340;SDS011;7770;52.158;5.372;2022-10-24T09:09:24;7.33;;;2.73;;
15340;SDS011;7770;52.158;5.372;2022-10-24T09:12:27;6.67;;;2.50;;
15340;SDS011;7770;52.158;5.372;2022-10-24T09:15:21;7.63;;;2.60;;
15340;SDS011;7770;52.158;5.372;2022-10-24T09:18:36;5.00;;;2.50;;
15340;SDS011;7770;52.158;5.372;2022-10-24T09:21:25;7.47;;;2.50;;
15340;SDS011;7770;52.158;5.372;2022-10-24T09:27:25;7.97;;;2.60;;
15340;SDS011;7770;52.158;5.372;2022-10-24T09:30:17;10.90;;;2.80;;
15340;SDS011;7770;52.158;5.372;2022-10-24T09:36:04;9.97;;;2.90;;
15340;SDS011;7770;52.158;5.372;2022-10-24T09:38:55;5.17;;;2.20;;
15340;SDS011;7770;52.158;5.372;2022-10-24T09:41:44;6.87;;;2.90;;
15340;SDS011;7770;52.158;5.372;2022-10-24T09:44:36;6.10;;;2.50;;
15340;SDS011;7770;52.158;5.372;2022-10-24T09:47:26;7.00;;;2.40;;
15340;SDS011;7770;52.158;5.372;2022-10-24T09:50:20;8.13;;;3.00;;
15340;SDS011;7770;52.158;5.372;2022-10-24T09:53:13;8.73;;;3.33;;
15340;SDS011;7770;52.158;5.372;2022-10-24T09:56:14;8.07;;;3.13;;
15340;SDS011;7770;52.158;5.372;2022-10-24T10:02:28;7.27;;;2.70;;
15340;SDS011;7770;52.158;5.372;2022-10-24T10:05:19;4.10;;;2.13;;
15340;SDS011;7770;52.158;5.372;2022-10-24T10:08:08;5.47;;;2.57;;
15340;SDS011;7770;52.158;5.372;2022-10-24T10:13:53;8.47;;;2.77;;
15340;SDS011;7770;52.158;5.372;2022-10-24T10:16:39;5.63;;;2.40;;
15340;SDS011;7770;52.158;5.372;2022-10-24T10:19:26;7.23;;;2.80;;
15340;SDS011;7770;52.158;5.372;2022-10-24T10:22:23;6.60;;;2.27;;
15340;SDS011;7770;52.158;5.372;2022-10-24T10:25:27;7.57;;;2.83;;
15340;SDS011;7770;52.158;5.372;2022-10-24T10:28:20;5.47;;;2.50;;
15340;SDS011;7770;52.158;5.372;2022-10-24T10:31:08;6.67;;;2.77;;
15340;SDS011;7770;52.158;5.372;2022-10-24T10:40:18;5.50;;;2.20;;
15340;SDS011;7770;52.158;5.372;2022-10-24T10:49:56;7.33;;;2.50;;
15340;SDS011;7770;52.158;5.372;2022-10-24T10:52:46;6.60;;;2.10;;
15340;SDS011;7770;52.158;5.372;2022-10-24T10:55:35;6.67;;;2.40;;
15340;SDS011;7770;52.158;5.372;2022-10-24T11:01:58;6.97;;;2.43;;
15340;SDS011;7770;52.158;5.372;2022-10-24T11:04:57;5.87;;;2.23;;
15340;SDS011;7770;52.158;5.372;2022-10-24T11:11:33;3.83;;;1.90;;
15340;SDS011;7770;52.158;5.372;2022-10-24T11:14:45;6.87;;;2.30;;
15340;SDS011;7770;52.158;5.372;2022-10-24T11:17:43;7.93;;;2.63;;
15340;SDS011;7770;52.158;5.372;2022-10-24T11:20:57;4.83;;;2.60;;
15340;SDS011;7770;52.158;5.372;2022-10-24T11:23:56;6.10;;;2.57;;
15340;SDS011;7770;52.158;5.372;2022-10-24T11:26:57;6.67;;;2.27;;
15340;SDS011;7770;52.158;5.372;2022-10-24T11:29:59;6.03;;;2.57;;
15340;SDS011;7770;52.158;5.372;2022-10-24T11:32:51;8.50;;;2.13;;
15340;SDS011;7770;52.158;5.372;2022-10-24T11:35:52;7.93;;;2.30;;
15340;SDS011;7770;52.158;5.372;2022-10-24T11:38:54;8.53;;;2.57;;
15340;SDS011;7770;52.158;5.372;2022-10-24T11:45:19;6.73;;;2.97;;
15340;SDS011;7770;52.158;5.372;2022-10-24T11:48:29;4.67;;;2.90;;
15340;SDS011;7770;52.158;5.372;2022-10-24T11:51:32;5.20;;;2.90;;
15340;SDS011;7770;52.158;5.372;2022-10-24T11:54:38;5.10;;;2.87;;
15340;SDS011;7770;52.158;5.372;2022-10-24T11:57:29;5.60;;;2.90;;
15340;SDS011;7770;52.158;5.372;2022-10-24T12:00:22;6.57;;;2.90;;
15340;SDS011;7770;52.158;5.372;2022-10-24T12:03:26;6.77;;;3.03;;
15340;SDS011;7770;52.158;5.372;2022-10-24T12:10:43;5.23;;;2.90;;
15340;SDS011;7770;52.158;5.372;2022-10-24T12:19:51;6.97;;;3.10;;
15340;SDS011;7770;52.158;5.372;2022-10-24T12:22:39;4.47;;;2.70;;
15340;SDS011;7770;52.158;5.372;2022-10-24T12:28:22;7.00;;;3.03;;
15340;SDS011;7770;52.158;5.372;2022-10-24T12:49:14;5.43;;;2.67;;
15340;SDS011;7770;52.158;5.372;2022-10-24T12:58:30;6.17;;;2.67;;
15340;SDS011;7770;52.158;5.372;2022-10-24T13:01:22;5.00;;;2.80;;
15340;SDS011;7770;52.158;5.372;2022-10-24T13:11:28;8.50;;;3.03;;
15340;SDS011;7770;52.158;5.372;2022-10-24T13:14:26;6.97;;;3.20;;
15340;SDS011;7770;52.158;5.372;2022-10-24T13:18:40;11.33;;;3.73;;
15340;SDS011;7770;52.158;5.372;2022-10-24T13:29:59;7.77;;;3.67;;
15340;SDS011;7770;52.158;5.372;2022-10-24T13:32:48;7.90;;;3.57;;
15340;SDS011;7770;52.158;5.372;2022-10-24T13:35:34;6.97;;;3.53;;
15340;SDS011;7770;52.158;5.372;2022-10-24T13:38:20;8.37;;;3.67;;
15340;SDS011;7770;52.158;5.372;2022-10-24T13:41:09;7.73;;;3.80;;
15340;SDS011;7770;52.158;5.372;2022-10-24T13:44:20;8.53;;;3.47;;
15340;SDS011;7770;52.158;5.372;2022-10-24T13:50:21;8.50;;;3.77;;
15340;SDS011;7770;52.158;5.372;2022-10-24T13:53:22;6.83;;;3.57;;
15340;SDS011;7770;52.158;5.372;2022-10-24T13:56:14;8.37;;;3.60;;
15340;SDS011;7770;52.158;5.372;2022-10-24T13:59:01;9.70;;;3.87;;
15340;SDS011;7770;52.158;5.372;2022-10-24T14:01:47;7.90;;;3.60;;
15340;SDS011;7770;52.158;5.372;2022-10-24T14:04:33;7.80;;;3.37;;
15340;SDS011;7770;52.158;5.372;2022-10-24T14:07:22;7.70;;;3.40;;
15340;SDS011;7770;52.158;5.372;2022-10-24T14:10:17;6.97;;;3.40;;
15340;SDS011;7770;52.158;5.372;2022-10-24T14:13:05;8.37;;;3.80;;
15340;SDS011;7770;52.158;5.372;2022-10-24T14:15:55;9.27;;;3.70;;
15340;SDS011;7770;52.158;5.372;2022-10-24T14:18:44;7.40;;;3.50;;
15340;SDS011;7770;52.158;5.372;2022-10-24T14:21:37;9.00;;;3.30;;
15340;SDS011;7770;52.158;5.372;2022-10-24T14:24:29;8.03;;;3.77;;
15340;SDS011;7770;52.158;5.372;2022-10-24T14:27:16;8.77;;;3.60;;
15340;SDS011;7770;52.158;5.372;2022-10-24T14:30:04;10.53;;;3.77;;
15340;SDS011;7770;52.158;5.372;2022-10-24T14:33:04;12.07;;;4.03;;
15340;SDS011;7770;52.158;5.372;2022-10-24T14:35:58;8.97;;;3.27;;
15340;SDS011;7770;52.158;5.372;2022-10-24T14:38:50;5.97;;;3.30;;
15340;SDS011;7770;52.158;5.372;2022-10-24T14:41:40;8.93;;;3.30;;
15340;SDS011;7770;52.158;5.372;2022-10-24T14:44:26;8.57;;;3.47;;
15340;SDS011;7770;52.158;5.372;2022-10-24T14:47:21;9.57;;;3.63;;
15340;SDS011;7770;52.158;5.372;2022-10-24T14:53:29;7.73;;;3.40;;
15340;SDS011;7770;52.158;5.372;2022-10-24T14:59:20;11.50;;;3.90;;
15340;SDS011;7770;52.158;5.372;2022-10-24T15:02:24;7.83;;;3.10;;
15340;SDS011;7770;52.158;5.372;2022-10-24T15:11:03;7.87;;;3.50;;
15340;SDS011;7770;52.158;5.372;2022-10-24T15:14:02;10.07;;;3.73;;
15340;SDS011;7770;52.158;5.372;2022-10-24T15:16:48;14.00;;;3.60;;
15340;SDS011;7770;52.158;5.372;2022-10-24T15:19:37;7.27;;;3.40;;
15340;SDS011;7770;52.158;5.372;2022-10-24T15:22:24;7.20;;;3.17;;
15340;SDS011;7770;52.158;5.372;2022-10-24T15:25:21;9.40;;;3.47;;
15340;SDS011;7770;52.158;5.372;2022-10-24T15:31:30;10.03;;;3.63;;
15340;SDS011;7770;52.158;5.372;2022-10-24T15:34:21;5.93;;;3.00;;
15340;SDS011;7770;52.158;5.372;2022-10-24T15:37:17;8.43;;;3.10;;
15340;SDS011;7770;52.158;5.372;2022-10-24T15:40:18;7.53;;;2.80;;
15340;SDS011;7770;52.158;5.372;2022-10-24T15:43:11;9.97;;;3.00;;
15340;SDS011;7770;52.158;5.372;2022-10-24T15:46:00;7.63;;;3.10;;
15340;SDS011;7770;52.158;5.372;2022-10-24T15:48:47;9.13;;;3.13;;
15340;SDS011;7770;52.158;5.372;2022-10-24T15:51:34;9.57;;;3.00;;
15340;SDS011;7770;52.158;5.372;2022-10-24T15:54:22;7.90;;;3.00;;
15340;SDS011;7770;52.158;5.372;2022-10-24T15:57:11;7.33;;;2.60;;
15340;SDS011;7770;52.158;5.372;2022-10-24T15:59:58;8.20;;;2.73;;
15340;SDS011;7770;52.158;5.372;2022-10-24T16:02:44;10.27;;;3.07;;
15340;SDS011;7770;52.158;5.372;2022-10-24T16:05:35;8.63;;;2.93;;
15340;SDS011;7770;52.158;5.372;2022-10-24T16:08:24;6.63;;;2.57;;
15340;SDS011;7770;52.158;5.372;2022-10-24T16:11:10;8.30;;;3.07;;
15340;SDS011;7770;52.158;5.372;2022-10-24T16:13:57;6.53;;;2.77;;
15340;SDS011;7770;52.158;5.372;2022-10-24T16:16:43;9.77;;;3.00;;
15340;SDS011;7770;52.158;5.372;2022-10-24T16:19:29;5.80;;;2.90;;
15340;SDS011;7770;52.158;5.372;2022-10-24T16:22:15;11.00;;;3.50;;
15340;SDS011;7770;52.158;5.372;2022-10-24T16:25:01;9.50;;;4.23;;
15340;SDS011;7770;52.158;5.372;2022-10-24T16:27:48;11.47;;;6.83;;
15340;SDS011;7770;52.158;5.372;2022-10-24T16:30:37;13.40;;;5.27;;
15340;SDS011;7770;52.158;5.372;2022-10-24T16:33:25;11.90;;;6.17;;
15340;SDS011;7770;52.158;5.372;2022-10-24T16:36:11;12.80;;;4.23;;
15340;SDS011;7770;52.158;5.372;2022-10-24T16:38:57;12.73;;;4.83;;
15340;SDS011;7770;52.158;5.372;2022-10-24T16:41:43;13.33;;;4.93;;
15340;SDS011;7770;52.158;5.372;2022-10-24T16:44:30;16.57;;;4.10;;
15340;SDS011;7770;52.158;5.372;2022-10-24T16:47:18;15.40;;;6.30;;
15340;SDS011;7770;52.158;5.372;2022-10-24T16:50:04;13.57;;;5.03;;
15340;SDS011;7770;52.158;5.372;2022-10-24T16:52:51;14.03;;;4.63;;
15340;SDS011;7770;52.158;5.372;2022-10-24T16:55:39;16.47;;;5.23;;
15340;SDS011;7770;52.158;5.372;2022-10-24T16:58:38;12.27;;;4.40;;
15340;SDS011;7770;52.158;5.372;2022-10-24T17:01:24;16.13;;;6.70;;
15340;SDS011;7770;52.158;5.372;2022-10-24T17:04:11;12.47;;;5.03;;
15340;SDS011;7770;52.158;5.372;2022-10-24T17:06:57;17.77;;;5.00;;
15340;SDS011;7770;52.158;5.372;2022-10-24T17:09:43;17.77;;;7.13;;
15340;SDS011;7770;52.158;5.372;2022-10-24T17:12:29;14.30;;;6.70;;
15340;SDS011;7770;52.158;5.372;2022-10-24T17:15:16;17.70;;;6.10;;
15340;SDS011;7770;52.158;5.372;2022-10-24T17:18:03;15.23;;;5.70;;
15340;SDS011;7770;52.158;5.372;2022-10-24T17:20:50;18.83;;;5.93;;
15340;SDS011;7770;52.158;5.372;2022-10-24T17:23:42;14.53;;;6.00;;
15340;SDS011;7770;52.158;5.372;2022-10-24T17:26:28;15.80;;;6.73;;
15340;SDS011;7770;52.158;5.372;2022-10-24T17:29:17;16.10;;;5.47;;
15340;SDS011;7770;52.158;5.372;2022-10-24T17:32:16;17.47;;;7.53;;
15340;SDS011;7770;52.158;5.372;2022-10-24T17:35:03;17.33;;;5.70;;
15340;SDS011;7770;52.158;5.372;2022-10-24T17:40:54;11.97;;;5.90;;
15340;SDS011;7770;52.158;5.372;2022-10-24T17:43:45;15.90;;;6.40;;
15340;SDS011;7770;52.158;5.372;2022-10-24T17:46:31;15.70;;;10.07;;
15340;SDS011;7770;52.158;5.372;2022-10-24T17:49:17;14.80;;;6.37;;
15340;SDS011;7770;52.158;5.372;2022-10-24T17:52:03;18.13;;;8.50;;
15340;SDS011;7770;52.158;5.372;2022-10-24T17:54:49;26.27;;;12.07;;
15340;SDS011;7770;52.158;5.372;2022-10-24T17:57:35;14.50;;;6.33;;
15340;SDS011;7770;52.158;5.372;2022-10-24T18:00:21;17.97;;;9.10;;
15340;SDS011;7770;52.158;5.372;2022-10-24T18:03:07;21.97;;;10.37;;
15340;SDS011;7770;52.158;5.372;2022-10-24T18:06:00;12.47;;;6.37;;
15340;SDS011;7770;52.158;5.372;2022-10-24T18:08:53;14.67;;;6.20;;
15340;SDS011;7770;52.158;5.372;2022-10-24T18:11:40;17.00;;;6.30;;
15340;SDS011;7770;52.158;5.372;2022-10-24T18:14:27;18.03;;;7.80;;
15340;SDS011;7770;52.158;5.372;2022-10-24T18:17:13;18.20;;;9.87;;
15340;SDS011;7770;52.158;5.372;2022-10-24T18:19:59;15.07;;;6.37;;
15340;SDS011;7770;52.158;5.372;2022-10-24T18:22:45;15.17;;;6.00;;
15340;SDS011;7770;52.158;5.372;2022-10-24T18:25:31;12.30;;;6.13;;
15340;SDS011;7770;52.158;5.372;2022-10-24T18:28:17;10.37;;;6.13;;
15340;SDS011;7770;52.158;5.372;2022-10-24T18:31:04;14.30;;;6.50;;
15340;SDS011;7770;52.158;5.372;2022-10-24T18:33:59;13.73;;;5.73;;
15340;SDS011;7770;52.158;5.372;2022-10-24T18:36:46;17.50;;;5.67;;
15340;SDS011;7770;52.158;5.372;2022-10-24T18:39:32;12.23;;;5.50;;
15340;SDS011;7770;52.158;5.372;2022-10-24T18:42:40;11.40;;;5.10;;
15340;SDS011;7770;52.158;5.372;2022-10-24T18:45:33;10.23;;;5.30;;
15340;SDS011;7770;52.158;5.372;2022-10-24T18:48:20;14.17;;;5.90;;
15340;SDS011;7770;52.158;5.372;2022-10-24T18:51:08;14.80;;;5.47;;
15340;SDS011;7770;52.158;5.372;2022-10-24T18:54:18;12.53;;;5.43;;
15340;SDS011;7770;52.158;5.372;2022-10-24T18:57:15;14.27;;;5.60;;
15340;SDS011;7770;52.158;5.372;2022-10-24T19:00:13;11.33;;;5.47;;
15340;SDS011;7770;52.158;5.372;2022-10-24T19:09:15;13.77;;;5.77;;
15340;SDS011;7770;52.158;5.372;2022-10-24T19:12:05;10.87;;;5.50;;
15340;SDS011;7770;52.158;5.372;2022-10-24T19:14:53;12.40;;;5.30;;
15340;SDS011;7770;52.158;5.372;2022-10-24T19:17:39;10.67;;;5.43;;
15340;SDS011;7770;52.158;5.372;2022-10-24T19:20:25;12.27;;;6.17;;
15340;SDS011;7770;52.158;5.372;2022-10-24T19:23:13;11.17;;;5.67;;
15340;SDS011;7770;52.158;5.372;2022-10-24T19:26:00;13.20;;;5.90;;
15340;SDS011;7770;52.158;5.372;2022-10-24T19:28:46;14.07;;;6.07;;
15340;SDS011;7770;52.158;5.372;2022-10-24T19:31:32;11.77;;;5.70;;
15340;SDS011;7770;52.158;5.372;2022-10-24T19:34:18;12.57;;;6.10;;
15340;SDS011;7770;52.158;5.372;2022-10-24T19:37:04;12.37;;;5.90;;